Terminal Aerodrome Forecast
Issued by NWS Pueblo, CO

Home | Current Version | Previous Version | Text Only | Print | Product List | Glossary On
Versions: 1 2 3 4 5 6 7 8 9 10 11 12 13 14 15 16 17 18 19 20 21 22 23 24 25 26 27 28 29 30 31 32 33 34 35 36 37 38 39 40
000
FTUS45 KPUB 282105 AAA
TAFALS
TAF AMD
KALS 282105Z 2821/2918 18012KT P6SM VCTS SCT090CB SCT200
      TEMPO 2821/2823 VRB20G30KT -TSRA BKN080CB
     FM290000 26010KT P6SM SCT100 BKN200
     FM290300 VRB06KT P6SM FEW120 SCT200=

USA.gov is the U.S. government's official web portal to all federal, state and local government web resources and services.